sensor_id;sensor_type;location;lat;lon;timestamp;P1;durP1;ratioP1;P2;durP2;ratioP2
63189;SDS011;49286;44.460;26.114;2023-04-24T00:01:49;23.67;;;15.13;;
63189;SDS011;49286;44.460;26.114;2023-04-24T00:04:15;16.17;;;13.43;;
63189;SDS011;49286;44.460;26.114;2023-04-24T00:06:42;18.85;;;12.98;;
63189;SDS011;49286;44.460;26.114;2023-04-24T00:09:11;21.95;;;16.38;;
63189;SDS011;49286;44.460;26.114;2023-04-24T00:11:36;21.05;;;15.02;;
63189;SDS011;49286;44.460;26.114;2023-04-24T00:14:02;14.65;;;12.10;;
63189;SDS011;49286;44.460;26.114;2023-04-24T00:16:28;21.50;;;13.88;;
63189;SDS011;49286;44.460;26.114;2023-04-24T00:18:53;20.17;;;15.18;;
63189;SDS011;49286;44.460;26.114;2023-04-24T00:21:19;21.70;;;15.43;;
63189;SDS011;49286;44.460;26.114;2023-04-24T00:23:46;20.92;;;15.35;;
63189;SDS011;49286;44.460;26.114;2023-04-24T00:26:12;24.08;;;17.42;;
63189;SDS011;49286;44.460;26.114;2023-04-24T00:28:39;22.33;;;16.75;;
63189;SDS011;49286;44.460;26.114;2023-04-24T00:31:04;25.05;;;16.65;;
63189;SDS011;49286;44.460;26.114;2023-04-24T00:33:30;18.65;;;15.70;;
63189;SDS011;49286;44.460;26.114;2023-04-24T00:35:55;21.73;;;16.17;;
63189;SDS011;49286;44.460;26.114;2023-04-24T00:38:21;20.75;;;16.35;;
63189;SDS011;49286;44.460;26.114;2023-04-24T00:40:47;20.25;;;14.45;;
63189;SDS011;49286;44.460;26.114;2023-04-24T00:43:14;24.05;;;16.65;;
63189;SDS011;49286;44.460;26.114;2023-04-24T00:45:40;21.17;;;16.60;;
63189;SDS011;49286;44.460;26.114;2023-04-24T00:48:06;23.70;;;15.93;;
63189;SDS011;49286;44.460;26.114;2023-04-24T00:50:32;24.20;;;15.48;;
63189;SDS011;49286;44.460;26.114;2023-04-24T00:52:58;22.13;;;15.00;;
63189;SDS011;49286;44.460;26.114;2023-04-24T00:55:24;17.90;;;15.05;;
63189;SDS011;49286;44.460;26.114;2023-04-24T00:57:50;22.83;;;16.88;;
63189;SDS011;49286;44.460;26.114;2023-04-24T01:00:16;30.70;;;19.08;;
63189;SDS011;49286;44.460;26.114;2023-04-24T01:02:43;26.60;;;15.52;;
63189;SDS011;49286;44.460;26.114;2023-04-24T01:05:10;24.98;;;17.52;;
63189;SDS011;49286;44.460;26.114;2023-04-24T01:07:37;20.75;;;17.33;;
63189;SDS011;49286;44.460;26.114;2023-04-24T01:10:04;20.73;;;16.70;;
63189;SDS011;49286;44.460;26.114;2023-04-24T01:12:30;21.60;;;16.20;;
63189;SDS011;49286;44.460;26.114;2023-04-24T01:14:57;25.85;;;16.60;;
63189;SDS011;49286;44.460;26.114;2023-04-24T01:17:22;21.40;;;16.80;;
63189;SDS011;49286;44.460;26.114;2023-04-24T01:19:48;24.17;;;19.88;;
63189;SDS011;49286;44.460;26.114;2023-04-24T01:22:14;28.88;;;20.02;;
63189;SDS011;49286;44.460;26.114;2023-04-24T01:24:40;37.55;;;22.50;;
63189;SDS011;49286;44.460;26.114;2023-04-24T01:27:06;40.22;;;34.42;;
63189;SDS011;49286;44.460;26.114;2023-04-24T01:29:33;43.63;;;36.83;;
63189;SDS011;49286;44.460;26.114;2023-04-24T01:31:59;37.95;;;32.35;;
63189;SDS011;49286;44.460;26.114;2023-04-24T01:34:25;41.47;;;32.30;;
63189;SDS011;49286;44.460;26.114;2023-04-24T01:36:51;37.65;;;33.30;;
63189;SDS011;49286;44.460;26.114;2023-04-24T01:39:16;41.67;;;32.70;;
63189;SDS011;49286;44.460;26.114;2023-04-24T01:41:43;47.33;;;33.35;;
63189;SDS011;49286;44.460;26.114;2023-04-24T01:44:08;39.20;;;32.28;;
63189;SDS011;49286;44.460;26.114;2023-04-24T01:46:34;34.90;;;31.02;;
63189;SDS011;49286;44.460;26.114;2023-04-24T01:49:00;37.50;;;29.90;;
63189;SDS011;49286;44.460;26.114;2023-04-24T01:51:26;35.00;;;26.20;;
63189;SDS011;49286;44.460;26.114;2023-04-24T01:53:52;31.55;;;24.98;;
63189;SDS011;49286;44.460;26.114;2023-04-24T01:56:19;26.27;;;21.20;;
63189;SDS011;49286;44.460;26.114;2023-04-24T01:58:46;29.90;;;21.55;;
63189;SDS011;49286;44.460;26.114;2023-04-24T02:01:19;28.63;;;23.65;;
63189;SDS011;49286;44.460;26.114;2023-04-24T02:03:46;27.30;;;21.92;;
63189;SDS011;49286;44.460;26.114;2023-04-24T02:06:11;29.38;;;23.08;;
63189;SDS011;49286;44.460;26.114;2023-04-24T02:08:37;27.05;;;23.30;;
63189;SDS011;49286;44.460;26.114;2023-04-24T02:11:03;28.13;;;22.45;;
63189;SDS011;49286;44.460;26.114;2023-04-24T02:13:28;39.13;;;26.27;;
63189;SDS011;49286;44.460;26.114;2023-04-24T02:15:54;32.05;;;25.25;;
63189;SDS011;49286;44.460;26.114;2023-04-24T02:18:19;37.85;;;23.60;;
63189;SDS011;49286;44.460;26.114;2023-04-24T02:20:45;26.60;;;21.70;;
63189;SDS011;49286;44.460;26.114;2023-04-24T02:23:11;33.08;;;21.23;;
63189;SDS011;49286;44.460;26.114;2023-04-24T02:25:36;29.55;;;20.85;;
63189;SDS011;49286;44.460;26.114;2023-04-24T02:28:02;22.38;;;19.08;;
63189;SDS011;49286;44.460;26.114;2023-04-24T02:30:28;32.97;;;20.48;;
63189;SDS011;49286;44.460;26.114;2023-04-24T02:32:53;19.15;;;17.15;;
63189;SDS011;49286;44.460;26.114;2023-04-24T02:35:19;23.92;;;19.52;;
63189;SDS011;49286;44.460;26.114;2023-04-24T02:37:44;22.58;;;19.33;;
63189;SDS011;49286;44.460;26.114;2023-04-24T02:40:10;26.98;;;21.38;;
63189;SDS011;49286;44.460;26.114;2023-04-24T02:42:36;34.22;;;28.02;;
63189;SDS011;49286;44.460;26.114;2023-04-24T02:45:01;34.25;;;25.10;;
63189;SDS011;49286;44.460;26.114;2023-04-24T02:47:27;30.92;;;27.52;;
63189;SDS011;49286;44.460;26.114;2023-04-24T02:49:52;34.15;;;29.27;;
63189;SDS011;49286;44.460;26.114;2023-04-24T02:52:18;38.38;;;27.92;;
63189;SDS011;49286;44.460;26.114;2023-04-24T02:54:43;37.15;;;29.73;;
63189;SDS011;49286;44.460;26.114;2023-04-24T02:57:09;38.78;;;30.05;;
63189;SDS011;49286;44.460;26.114;2023-04-24T02:59:34;33.38;;;29.80;;
63189;SDS011;49286;44.460;26.114;2023-04-24T03:02:00;27.17;;;22.25;;
63189;SDS011;49286;44.460;26.114;2023-04-24T03:04:25;30.25;;;23.23;;
63189;SDS011;49286;44.460;26.114;2023-04-24T03:06:51;22.75;;;20.35;;
63189;SDS011;49286;44.460;26.114;2023-04-24T03:09:20;32.08;;;23.30;;
63189;SDS011;49286;44.460;26.114;2023-04-24T03:11:48;36.38;;;22.52;;
63189;SDS011;49286;44.460;26.114;2023-04-24T03:14:14;26.70;;;23.38;;
63189;SDS011;49286;44.460;26.114;2023-04-24T03:16:40;26.20;;;20.38;;
63189;SDS011;49286;44.460;26.114;2023-04-24T03:19:06;24.92;;;22.02;;
63189;SDS011;49286;44.460;26.114;2023-04-24T03:21:31;29.20;;;21.00;;
63189;SDS011;49286;44.460;26.114;2023-04-24T03:23:57;23.52;;;19.00;;
63189;SDS011;49286;44.460;26.114;2023-04-24T03:26:23;23.17;;;18.70;;
63189;SDS011;49286;44.460;26.114;2023-04-24T03:28:48;26.50;;;17.95;;
63189;SDS011;49286;44.460;26.114;2023-04-24T03:31:14;17.77;;;15.88;;
63189;SDS011;49286;44.460;26.114;2023-04-24T03:33:40;24.55;;;15.00;;
63189;SDS011;49286;44.460;26.114;2023-04-24T03:36:06;26.67;;;15.75;;
63189;SDS011;49286;44.460;26.114;2023-04-24T03:38:32;24.70;;;15.05;;
63189;SDS011;49286;44.460;26.114;2023-04-24T03:40:57;26.63;;;15.05;;
63189;SDS011;49286;44.460;26.114;2023-04-24T03:43:22;17.25;;;15.00;;
63189;SDS011;49286;44.460;26.114;2023-04-24T03:45:48;33.03;;;15.45;;
63189;SDS011;49286;44.460;26.114;2023-04-24T03:48:13;25.33;;;14.60;;
63189;SDS011;49286;44.460;26.114;2023-04-24T03:50:39;26.27;;;16.17;;
63189;SDS011;49286;44.460;26.114;2023-04-24T03:53:04;22.98;;;15.38;;
63189;SDS011;49286;44.460;26.114;2023-04-24T03:55:30;17.13;;;15.02;;
63189;SDS011;49286;44.460;26.114;2023-04-24T03:57:55;26.90;;;17.48;;
63189;SDS011;49286;44.460;26.114;2023-04-24T04:00:21;28.23;;;16.70;;
63189;SDS011;49286;44.460;26.114;2023-04-24T04:02:46;23.85;;;17.23;;
63189;SDS011;49286;44.460;26.114;2023-04-24T04:05:12;26.20;;;15.73;;
63189;SDS011;49286;44.460;26.114;2023-04-24T04:07:37;22.20;;;13.95;;
63189;SDS011;49286;44.460;26.114;2023-04-24T04:10:03;20.80;;;14.60;;
63189;SDS011;49286;44.460;26.114;2023-04-24T04:12:28;23.25;;;15.43;;
63189;SDS011;49286;44.460;26.114;2023-04-24T04:14:55;18.27;;;13.10;;
63189;SDS011;49286;44.460;26.114;2023-04-24T04:17:20;17.00;;;14.55;;
63189;SDS011;49286;44.460;26.114;2023-04-24T04:19:46;30.02;;;16.83;;
63189;SDS011;49286;44.460;26.114;2023-04-24T04:22:11;32.90;;;17.08;;
63189;SDS011;49286;44.460;26.114;2023-04-24T04:24:36;28.13;;;17.67;;
63189;SDS011;49286;44.460;26.114;2023-04-24T04:27:03;24.65;;;17.88;;
63189;SDS011;49286;44.460;26.114;2023-04-24T04:29:30;31.17;;;16.20;;
63189;SDS011;49286;44.460;26.114;2023-04-24T04:31:56;22.00;;;16.33;;
63189;SDS011;49286;44.460;26.114;2023-04-24T04:34:22;34.90;;;17.95;;
63189;SDS011;49286;44.460;26.114;2023-04-24T04:36:48;28.35;;;16.38;;
63189;SDS011;49286;44.460;26.114;2023-04-24T04:39:13;29.35;;;18.58;;
63189;SDS011;49286;44.460;26.114;2023-04-24T04:41:43;25.58;;;17.10;;
63189;SDS011;49286;44.460;26.114;2023-04-24T04:44:09;28.35;;;18.15;;
63189;SDS011;49286;44.460;26.114;2023-04-24T04:46:34;21.52;;;14.77;;
63189;SDS011;49286;44.460;26.114;2023-04-24T04:49:02;35.42;;;18.30;;
63189;SDS011;49286;44.460;26.114;2023-04-24T04:51:28;28.58;;;17.33;;
63189;SDS011;49286;44.460;26.114;2023-04-24T04:53:53;30.67;;;17.13;;
63189;SDS011;49286;44.460;26.114;2023-04-24T04:56:19;22.85;;;16.15;;
63189;SDS011;49286;44.460;26.114;2023-04-24T04:58:44;26.45;;;15.70;;
63189;SDS011;49286;44.460;26.114;2023-04-24T05:01:10;21.42;;;17.15;;
63189;SDS011;49286;44.460;26.114;2023-04-24T05:03:35;31.25;;;17.42;;
63189;SDS011;49286;44.460;26.114;2023-04-24T05:06:01;30.98;;;15.90;;
63189;SDS011;49286;44.460;26.114;2023-04-24T05:08:27;34.05;;;18.35;;
63189;SDS011;49286;44.460;26.114;2023-04-24T05:10:53;24.55;;;14.50;;
63189;SDS011;49286;44.460;26.114;2023-04-24T05:13:19;43.90;;;17.25;;
63189;SDS011;49286;44.460;26.114;2023-04-24T05:15:45;22.42;;;14.18;;
63189;SDS011;49286;44.460;26.114;2023-04-24T05:18:12;22.52;;;16.45;;
63189;SDS011;49286;44.460;26.114;2023-04-24T05:20:37;23.40;;;16.27;;
63189;SDS011;49286;44.460;26.114;2023-04-24T05:23:03;28.17;;;19.35;;
63189;SDS011;49286;44.460;26.114;2023-04-24T05:25:28;20.77;;;18.35;;
63189;SDS011;49286;44.460;26.114;2023-04-24T05:27:54;33.17;;;19.38;;
63189;SDS011;49286;44.460;26.114;2023-04-24T05:30:19;33.30;;;19.17;;
63189;SDS011;49286;44.460;26.114;2023-04-24T05:32:45;22.67;;;19.58;;
63189;SDS011;49286;44.460;26.114;2023-04-24T05:35:11;18.58;;;16.63;;
63189;SDS011;49286;44.460;26.114;2023-04-24T05:37:36;19.73;;;17.08;;
63189;SDS011;49286;44.460;26.114;2023-04-24T05:40:02;23.45;;;13.98;;
63189;SDS011;49286;44.460;26.114;2023-04-24T05:42:30;21.65;;;14.32;;
63189;SDS011;49286;44.460;26.114;2023-04-24T05:44:56;24.05;;;15.18;;
63189;SDS011;49286;44.460;26.114;2023-04-24T05:47:21;30.35;;;16.42;;
63189;SDS011;49286;44.460;26.114;2023-04-24T05:49:47;21.10;;;14.10;;
63189;SDS011;49286;44.460;26.114;2023-04-24T05:52:13;21.20;;;13.50;;
63189;SDS011;49286;44.460;26.114;2023-04-24T05:54:38;21.90;;;14.25;;
63189;SDS011;49286;44.460;26.114;2023-04-24T05:57:04;17.30;;;12.27;;
63189;SDS011;49286;44.460;26.114;2023-04-24T05:59:33;18.15;;;13.85;;
63189;SDS011;49286;44.460;26.114;2023-04-24T06:01:59;23.42;;;12.57;;
63189;SDS011;49286;44.460;26.114;2023-04-24T06:04:25;20.40;;;12.45;;
63189;SDS011;49286;44.460;26.114;2023-04-24T06:06:50;26.02;;;12.68;;
63189;SDS011;49286;44.460;26.114;2023-04-24T06:09:20;22.98;;;12.48;;
63189;SDS011;49286;44.460;26.114;2023-04-24T06:11:49;23.38;;;13.20;;
63189;SDS011;49286;44.460;26.114;2023-04-24T06:14:15;19.92;;;11.77;;
63189;SDS011;49286;44.460;26.114;2023-04-24T06:16:41;15.20;;;11.88;;
63189;SDS011;49286;44.460;26.114;2023-04-24T06:19:07;20.63;;;13.10;;
63189;SDS011;49286;44.460;26.114;2023-04-24T06:21:33;22.85;;;13.13;;
63189;SDS011;49286;44.460;26.114;2023-04-24T06:23:58;21.27;;;12.60;;
63189;SDS011;49286;44.460;26.114;2023-04-24T06:26:24;22.65;;;12.48;;
63189;SDS011;49286;44.460;26.114;2023-04-24T06:28:51;23.33;;;12.75;;
63189;SDS011;49286;44.460;26.114;2023-04-24T06:31:18;30.88;;;11.52;;
63189;SDS011;49286;44.460;26.114;2023-04-24T06:33:44;23.05;;;12.43;;
63189;SDS011;49286;44.460;26.114;2023-04-24T06:36:10;20.33;;;12.70;;
63189;SDS011;49286;44.460;26.114;2023-04-24T06:38:35;17.73;;;12.20;;
63189;SDS011;49286;44.460;26.114;2023-04-24T06:41:01;14.05;;;10.48;;
63189;SDS011;49286;44.460;26.114;2023-04-24T06:43:28;15.80;;;11.07;;
63189;SDS011;49286;44.460;26.114;2023-04-24T06:45:53;17.50;;;11.20;;
63189;SDS011;49286;44.460;26.114;2023-04-24T06:48:19;21.30;;;10.43;;
63189;SDS011;49286;44.460;26.114;2023-04-24T06:50:44;14.90;;;8.32;;
63189;SDS011;49286;44.460;26.114;2023-04-24T06:53:10;13.50;;;7.88;;
63189;SDS011;49286;44.460;26.114;2023-04-24T06:55:37;18.48;;;8.45;;
63189;SDS011;49286;44.460;26.114;2023-04-24T06:58:03;18.38;;;8.98;;
63189;SDS011;49286;44.460;26.114;2023-04-24T07:00:28;13.82;;;8.38;;
63189;SDS011;49286;44.460;26.114;2023-04-24T07:02:55;11.98;;;7.85;;
63189;SDS011;49286;44.460;26.114;2023-04-24T07:05:20;11.93;;;9.05;;
63189;SDS011;49286;44.460;26.114;2023-04-24T07:07:46;13.05;;;8.43;;
63189;SDS011;49286;44.460;26.114;2023-04-24T07:10:12;16.73;;;8.68;;
63189;SDS011;49286;44.460;26.114;2023-04-24T07:12:38;14.23;;;8.63;;
63189;SDS011;49286;44.460;26.114;2023-04-24T07:15:04;14.98;;;9.13;;
63189;SDS011;49286;44.460;26.114;2023-04-24T07:17:30;16.13;;;8.25;;
63189;SDS011;49286;44.460;26.114;2023-04-24T07:19:56;18.42;;;9.60;;
63189;SDS011;49286;44.460;26.114;2023-04-24T07:22:21;14.15;;;8.02;;
63189;SDS011;49286;44.460;26.114;2023-04-24T07:24:47;15.13;;;9.75;;
63189;SDS011;49286;44.460;26.114;2023-04-24T07:27:13;19.60;;;9.98;;
63189;SDS011;49286;44.460;26.114;2023-04-24T07:29:39;18.45;;;9.85;;
63189;SDS011;49286;44.460;26.114;2023-04-24T07:32:05;14.73;;;8.63;;
63189;SDS011;49286;44.460;26.114;2023-04-24T07:34:31;17.77;;;9.65;;
63189;SDS011;49286;44.460;26.114;2023-04-24T07:36:56;18.23;;;7.78;;
63189;SDS011;49286;44.460;26.114;2023-04-24T07:39:22;16.80;;;8.40;;
63189;SDS011;49286;44.460;26.114;2023-04-24T07:41:48;23.08;;;10.60;;
63189;SDS011;49286;44.460;26.114;2023-04-24T07:44:14;16.45;;;8.57;;
63189;SDS011;49286;44.460;26.114;2023-04-24T07:46:40;13.52;;;9.57;;
63189;SDS011;49286;44.460;26.114;2023-04-24T07:49:05;16.20;;;9.70;;
63189;SDS011;49286;44.460;26.114;2023-04-24T07:51:31;24.25;;;8.77;;
63189;SDS011;49286;44.460;26.114;2023-04-24T07:53:58;10.70;;;6.55;;
63189;SDS011;49286;44.460;26.114;2023-04-24T07:56:24;12.23;;;7.40;;
63189;SDS011;49286;44.460;26.114;2023-04-24T07:58:50;14.52;;;7.97;;
63189;SDS011;49286;44.460;26.114;2023-04-24T08:01:15;20.50;;;8.73;;
63189;SDS011;49286;44.460;26.114;2023-04-24T08:03:41;14.15;;;6.75;;
63189;SDS011;49286;44.460;26.114;2023-04-24T08:06:06;14.48;;;7.53;;
63189;SDS011;49286;44.460;26.114;2023-04-24T08:08:32;15.77;;;8.23;;
63189;SDS011;49286;44.460;26.114;2023-04-24T08:10:58;24.52;;;8.20;;
63189;SDS011;49286;44.460;26.114;2023-04-24T08:13:23;14.48;;;8.13;;
63189;SDS011;49286;44.460;26.114;2023-04-24T08:15:50;18.45;;;7.30;;
63189;SDS011;49286;44.460;26.114;2023-04-24T08:18:15;15.52;;;6.45;;
63189;SDS011;49286;44.460;26.114;2023-04-24T08:20:41;13.52;;;7.60;;
63189;SDS011;49286;44.460;26.114;2023-04-24T08:23:07;18.05;;;7.10;;
63189;SDS011;49286;44.460;26.114;2023-04-24T08:25:32;10.73;;;7.25;;
63189;SDS011;49286;44.460;26.114;2023-04-24T08:28:00;11.48;;;7.25;;
63189;SDS011;49286;44.460;26.114;2023-04-24T08:30:26;11.48;;;6.60;;
63189;SDS011;49286;44.460;26.114;2023-04-24T08:32:53;19.17;;;7.70;;
63189;SDS011;49286;44.460;26.114;2023-04-24T08:35:19;10.65;;;6.95;;
63189;SDS011;49286;44.460;26.114;2023-04-24T08:37:44;13.70;;;8.10;;
63189;SDS011;49286;44.460;26.114;2023-04-24T08:40:12;21.58;;;7.57;;
63189;SDS011;49286;44.460;26.114;2023-04-24T08:42:41;18.83;;;7.82;;
63189;SDS011;49286;44.460;26.114;2023-04-24T08:45:08;9.88;;;6.30;;
63189;SDS011;49286;44.460;26.114;2023-04-24T08:47:35;9.23;;;5.85;;
63189;SDS011;49286;44.460;26.114;2023-04-24T08:50:01;19.25;;;7.10;;
63189;SDS011;49286;44.460;26.114;2023-04-24T08:52:28;10.95;;;5.10;;
63189;SDS011;49286;44.460;26.114;2023-04-24T08:54:54;11.02;;;7.05;;
63189;SDS011;49286;44.460;26.114;2023-04-24T08:57:21;11.13;;;6.03;;
63189;SDS011;49286;44.460;26.114;2023-04-24T08:59:47;19.17;;;7.30;;
63189;SDS011;49286;44.460;26.114;2023-04-24T09:02:13;10.70;;;5.13;;
63189;SDS011;49286;44.460;26.114;2023-04-24T09:04:40;16.92;;;6.22;;
63189;SDS011;49286;44.460;26.114;2023-04-24T09:07:06;11.85;;;6.63;;
63189;SDS011;49286;44.460;26.114;2023-04-24T09:09:33;15.35;;;5.28;;
63189;SDS011;49286;44.460;26.114;2023-04-24T09:14:46;11.02;;;5.05;;
63189;SDS011;49286;44.460;26.114;2023-04-24T09:17:13;11.82;;;6.10;;
63189;SDS011;49286;44.460;26.114;2023-04-24T09:19:39;15.65;;;6.07;;
63189;SDS011;49286;44.460;26.114;2023-04-24T09:22:05;14.50;;;6.63;;
63189;SDS011;49286;44.460;26.114;2023-04-24T09:24:32;11.27;;;6.07;;
63189;SDS011;49286;44.460;26.114;2023-04-24T09:26:58;12.68;;;5.53;;
63189;SDS011;49286;44.460;26.114;2023-04-24T09:29:26;8.43;;;5.07;;
63189;SDS011;49286;44.460;26.114;2023-04-24T09:31:52;8.07;;;6.10;;
63189;SDS011;49286;44.460;26.114;2023-04-24T09:34:27;13.35;;;4.80;;
63189;SDS011;49286;44.460;26.114;2023-04-24T09:36:53;7.70;;;4.53;;
63189;SDS011;49286;44.460;26.114;2023-04-24T09:39:21;9.35;;;5.63;;
63189;SDS011;49286;44.460;26.114;2023-04-24T09:44:23;10.00;;;5.60;;
63189;SDS011;49286;44.460;26.114;2023-04-24T09:46:50;9.07;;;4.85;;
63189;SDS011;49286;44.460;26.114;2023-04-24T09:51:53;8.85;;;5.25;;
63189;SDS011;49286;44.460;26.114;2023-04-24T09:54:28;10.40;;;6.47;;
63189;SDS011;49286;44.460;26.114;2023-04-24T09:56:54;7.32;;;5.10;;
63189;SDS011;49286;44.460;26.114;2023-04-24T09:59:21;10.73;;;5.97;;
63189;SDS011;49286;44.460;26.114;2023-04-24T10:01:47;9.98;;;6.00;;
63189;SDS011;49286;44.460;26.114;2023-04-24T10:06:50;8.15;;;4.95;;
63189;SDS011;49286;44.460;26.114;2023-04-24T10:09:18;19.92;;;5.57;;
63189;SDS011;49286;44.460;26.114;2023-04-24T10:11:49;7.03;;;4.43;;
63189;SDS011;49286;44.460;26.114;2023-04-24T10:14:17;11.95;;;5.78;;
63189;SDS011;49286;44.460;26.114;2023-04-24T10:16:48;9.88;;;4.88;;
63189;SDS011;49286;44.460;26.114;2023-04-24T10:19:15;10.48;;;4.88;;
63189;SDS011;49286;44.460;26.114;2023-04-24T10:21:43;13.68;;;4.68;;
63189;SDS011;49286;44.460;26.114;2023-04-24T10:24:16;8.98;;;4.65;;
63189;SDS011;49286;44.460;26.114;2023-04-24T10:26:43;11.77;;;4.82;;
63189;SDS011;49286;44.460;26.114;2023-04-24T10:29:11;9.52;;;5.05;;
63189;SDS011;49286;44.460;26.114;2023-04-24T10:31:38;7.53;;;3.80;;
63189;SDS011;49286;44.460;26.114;2023-04-24T10:34:04;9.73;;;4.35;;
63189;SDS011;49286;44.460;26.114;2023-04-24T10:36:32;12.73;;;4.68;;
63189;SDS011;49286;44.460;26.114;2023-04-24T10:39:00;7.43;;;4.53;;
63189;SDS011;49286;44.460;26.114;2023-04-24T10:41:29;11.15;;;3.78;;
63189;SDS011;49286;44.460;26.114;2023-04-24T10:46:34;6.75;;;4.38;;
63189;SDS011;49286;44.460;26.114;2023-04-24T10:49:00;6.88;;;4.68;;
63189;SDS011;49286;44.460;26.114;2023-04-24T10:56:49;5.82;;;4.70;;
63189;SDS011;49286;44.460;26.114;2023-04-24T10:59:26;19.33;;;4.88;;
63189;SDS011;49286;44.460;26.114;2023-04-24T11:01:53;9.75;;;3.35;;
63189;SDS011;49286;44.460;26.114;2023-04-24T11:04:29;16.05;;;4.47;;
63189;SDS011;49286;44.460;26.114;2023-04-24T11:06:56;10.85;;;4.93;;
63189;SDS011;49286;44.460;26.114;2023-04-24T11:09:22;7.85;;;4.45;;
63189;SDS011;49286;44.460;26.114;2023-04-24T11:11:51;9.75;;;4.30;;
63189;SDS011;49286;44.460;26.114;2023-04-24T11:14:29;9.15;;;5.22;;
63189;SDS011;49286;44.460;26.114;2023-04-24T11:16:54;5.72;;;4.13;;
63189;SDS011;49286;44.460;26.114;2023-04-24T11:19:26;5.97;;;3.63;;
63189;SDS011;49286;44.460;26.114;2023-04-24T11:21:55;6.72;;;4.18;;
63189;SDS011;49286;44.460;26.114;2023-04-24T11:34:47;6.32;;;4.55;;
63189;SDS011;49286;44.460;26.114;2023-04-24T11:37:17;5.38;;;4.13;;
63189;SDS011;49286;44.460;26.114;2023-04-24T11:39:43;8.57;;;4.00;;
63189;SDS011;49286;44.460;26.114;2023-04-24T11:42:08;9.32;;;4.85;;
63189;SDS011;49286;44.460;26.114;2023-04-24T11:44:34;15.20;;;4.18;;
63189;SDS011;49286;44.460;26.114;2023-04-24T11:47:03;6.13;;;3.45;;
63189;SDS011;49286;44.460;26.114;2023-04-24T11:49:29;5.95;;;3.95;;
63189;SDS011;49286;44.460;26.114;2023-04-24T11:51:55;7.05;;;3.47;;
63189;SDS011;49286;44.460;26.114;2023-04-24T11:54:21;11.77;;;3.95;;
63189;SDS011;49286;44.460;26.114;2023-04-24T11:56:47;5.90;;;3.78;;
63189;SDS011;49286;44.460;26.114;2023-04-24T11:59:12;13.52;;;5.95;;
63189;SDS011;49286;44.460;26.114;2023-04-24T12:01:47;12.98;;;4.60;;
63189;SDS011;49286;44.460;26.114;2023-04-24T12:04:14;8.05;;;3.72;;
63189;SDS011;49286;44.460;26.114;2023-04-24T12:07:00;11.05;;;4.32;;
63189;SDS011;49286;44.460;26.114;2023-04-24T12:09:26;8.20;;;4.20;;
63189;SDS011;49286;44.460;26.114;2023-04-24T12:11:52;18.10;;;4.57;;
63189;SDS011;49286;44.460;26.114;2023-04-24T12:14:21;6.32;;;4.10;;
63189;SDS011;49286;44.460;26.114;2023-04-24T12:16:48;8.32;;;5.05;;
63189;SDS011;49286;44.460;26.114;2023-04-24T12:19:17;11.60;;;7.65;;
63189;SDS011;49286;44.460;26.114;2023-04-24T12:21:58;9.20;;;6.07;;
63189;SDS011;49286;44.460;26.114;2023-04-24T12:24:29;17.05;;;5.60;;
63189;SDS011;49286;44.460;26.114;2023-04-24T12:26:55;10.07;;;4.18;;
63189;SDS011;49286;44.460;26.114;2023-04-24T12:29:22;20.42;;;5.28;;
63189;SDS011;49286;44.460;26.114;2023-04-24T12:31:48;9.10;;;4.88;;
63189;SDS011;49286;44.460;26.114;2023-04-24T12:34:20;32.78;;;6.97;;
63189;SDS011;49286;44.460;26.114;2023-04-24T12:39:16;10.07;;;4.68;;
63189;SDS011;49286;44.460;26.114;2023-04-24T12:41:55;7.53;;;3.35;;
63189;SDS011;49286;44.460;26.114;2023-04-24T12:44:34;5.53;;;3.55;;
63189;SDS011;49286;44.460;26.114;2023-04-24T12:47:01;10.13;;;4.40;;
63189;SDS011;49286;44.460;26.114;2023-04-24T12:49:29;10.70;;;4.32;;
63189;SDS011;49286;44.460;26.114;2023-04-24T12:51:55;10.52;;;3.65;;
63189;SDS011;49286;44.460;26.114;2023-04-24T12:54:21;7.03;;;4.40;;
63189;SDS011;49286;44.460;26.114;2023-04-24T12:56:47;8.60;;;4.35;;
63189;SDS011;49286;44.460;26.114;2023-04-24T12:59:13;12.60;;;4.43;;
63189;SDS011;49286;44.460;26.114;2023-04-24T13:01:38;14.38;;;5.10;;
63189;SDS011;49286;44.460;26.114;2023-04-24T13:04:05;10.05;;;4.35;;
63189;SDS011;49286;44.460;26.114;2023-04-24T13:06:31;7.90;;;3.95;;
63189;SDS011;49286;44.460;26.114;2023-04-24T13:08:57;65.47;;;8.05;;
63189;SDS011;49286;44.460;26.114;2023-04-24T13:11:23;7.50;;;4.13;;
63189;SDS011;49286;44.460;26.114;2023-04-24T13:13:49;9.13;;;4.03;;
63189;SDS011;49286;44.460;26.114;2023-04-24T13:16:15;6.95;;;4.03;;
63189;SDS011;49286;44.460;26.114;2023-04-24T13:18:40;12.02;;;4.85;;
63189;SDS011;49286;44.460;26.114;2023-04-24T13:21:06;7.90;;;4.05;;
63189;SDS011;49286;44.460;26.114;2023-04-24T13:23:31;17.77;;;5.80;;
63189;SDS011;49286;44.460;26.114;2023-04-24T13:25:57;6.32;;;3.92;;
63189;SDS011;49286;44.460;26.114;2023-04-24T13:28:24;14.88;;;5.47;;
63189;SDS011;49286;44.460;26.114;2023-04-24T13:30:50;13.27;;;6.28;;
63189;SDS011;49286;44.460;26.114;2023-04-24T13:33:16;5.88;;;4.47;;
63189;SDS011;49286;44.460;26.114;2023-04-24T13:35:41;8.88;;;5.40;;
63189;SDS011;49286;44.460;26.114;2023-04-24T13:38:07;14.80;;;4.80;;
63189;SDS011;49286;44.460;26.114;2023-04-24T13:40:33;11.05;;;4.57;;
63189;SDS011;49286;44.460;26.114;2023-04-24T13:42:58;7.78;;;4.68;;
63189;SDS011;49286;44.460;26.114;2023-04-24T13:45:24;13.77;;;4.00;;
63189;SDS011;49286;44.460;26.114;2023-04-24T13:47:50;11.80;;;5.15;;
63189;SDS011;49286;44.460;26.114;2023-04-24T13:50:15;6.70;;;5.10;;
63189;SDS011;49286;44.460;26.114;2023-04-24T13:52:41;22.30;;;5.03;;
63189;SDS011;49286;44.460;26.114;2023-04-24T13:55:06;8.20;;;3.78;;
63189;SDS011;49286;44.460;26.114;2023-04-24T13:57:32;10.75;;;4.60;;
63189;SDS011;49286;44.460;26.114;2023-04-24T13:59:58;18.20;;;11.13;;
63189;SDS011;49286;44.460;26.114;2023-04-24T14:02:29;26.55;;;16.70;;
63189;SDS011;49286;44.460;26.114;2023-04-24T14:04:54;15.70;;;5.85;;
63189;SDS011;49286;44.460;26.114;2023-04-24T14:07:20;10.27;;;4.63;;
63189;SDS011;49286;44.460;26.114;2023-04-24T14:09:46;12.13;;;4.38;;
63189;SDS011;49286;44.460;26.114;2023-04-24T14:12:11;8.88;;;4.18;;
63189;SDS011;49286;44.460;26.114;2023-04-24T14:14:37;7.55;;;4.30;;
63189;SDS011;49286;44.460;26.114;2023-04-24T14:17:03;28.52;;;8.57;;
63189;SDS011;49286;44.460;26.114;2023-04-24T14:19:28;55.63;;;34.55;;
63189;SDS011;49286;44.460;26.114;2023-04-24T14:21:54;7.63;;;4.53;;
63189;SDS011;49286;44.460;26.114;2023-04-24T14:24:21;6.95;;;4.85;;
63189;SDS011;49286;44.460;26.114;2023-04-24T14:26:47;9.52;;;5.22;;
63189;SDS011;49286;44.460;26.114;2023-04-24T14:29:12;9.15;;;6.13;;
63189;SDS011;49286;44.460;26.114;2023-04-24T14:31:38;9.52;;;4.90;;
63189;SDS011;49286;44.460;26.114;2023-04-24T14:34:03;15.25;;;5.25;;
63189;SDS011;49286;44.460;26.114;2023-04-24T14:36:28;6.53;;;3.97;;
63189;SDS011;49286;44.460;26.114;2023-04-24T14:38:55;12.27;;;4.18;;
63189;SDS011;49286;44.460;26.114;2023-04-24T14:41:20;6.57;;;4.78;;
63189;SDS011;49286;44.460;26.114;2023-04-24T14:43:46;12.63;;;4.38;;
63189;SDS011;49286;44.460;26.114;2023-04-24T14:46:11;8.65;;;4.95;;